Time;durP1;ratioP1;P1;durP2;ratioP2;P2;SDS_P1;SDS_P2;PMS_P1;PMS_P2;Temp;Humidity;BMP_temperature;BMP_pressure;BME280_temperature;BME280_humidity;BME280_pressure;Samples;Min_cycle;Max_cycle;Signal;HPM_P1;HPM_P2
2023/08/29 00:00:26;;;;;;;5.05;4.55;;;17.30;99.90;;;;;;5109346;27;20447;-81
2023/08/29 00:02:53;;;;;;;7.43;4.45;;;17.40;99.90;;;;;;5092936;28;20039;-81
2023/08/29 00:05:19;;;;;;;6.32;4.53;;;17.30;99.90;;;;;;5089819;28;20399;-82
2023/08/29 00:07:45;;;;;;;4.80;4.25;;;17.20;99.90;;;;;;5110773;27;20050;-81
2023/08/29 00:10:11;;;;;;;6.18;4.18;;;17.20;99.90;;;;;;5107471;27;20406;-80
2023/08/29 00:12:41;;;;;;;5.32;3.65;;;17.20;99.90;;;;;;5107067;27;20042;-81
2023/08/29 00:15:08;;;;;;;5.18;3.83;;;17.10;99.90;;;;;;5110118;27;20122;-82
2023/08/29 00:17:34;;;;;;;7.85;4.57;;;17.00;99.90;;;;;;5091461;28;20119;-83
2023/08/29 00:20:00;;;;;;;5.60;4.45;;;17.00;99.90;;;;;;5110835;27;20126;-81
2023/08/29 00:22:26;;;;;;;5.18;4.03;;;17.00;99.90;;;;;;5128752;27;20074;-81
2023/08/29 00:24:52;;;;;;;10.18;5.07;;;17.00;99.90;;;;;;5110763;27;20534;-81
2023/08/29 00:27:19;;;;;;;8.80;4.93;;;17.00;99.90;;;;;;5107583;27;20651;-81
2023/08/29 00:29:45;;;;;;;5.25;4.47;;;17.00;99.90;;;;;;5126261;27;20047;-80
2023/08/29 00:32:11;;;;;;;6.80;4.35;;;17.00;99.90;;;;;;5129554;27;20031;-80
2023/08/29 00:34:37;;;;;;;7.30;4.32;;;16.90;99.90;;;;;;5112112;27;20054;-80
2023/08/29 00:37:03;;;;;;;5.18;4.03;;;16.80;99.90;;;;;;5093691;27;20147;-81
2023/08/29 00:39:28;;;;;;;4.45;3.67;;;16.90;99.90;;;;;;5112467;27;20427;-81
2023/08/29 00:41:54;;;;;;;4.30;3.72;;;16.90;99.90;;;;;;5111056;27;20498;-82
2023/08/29 00:44:21;;;;;;;5.88;4.00;;;16.90;99.90;;;;;;5110511;27;20039;-80
2023/08/29 00:46:46;;;;;;;5.57;3.90;;;16.80;99.90;;;;;;5121997;27;20046;-83
2023/08/29 00:49:16;;;;;;;4.90;3.88;;;16.90;99.90;;;;;;5095486;27;20043;-81
2023/08/29 00:51:42;;;;;;;4.70;3.33;;;16.70;99.90;;;;;;5112223;27;20459;-81
2023/08/29 00:54:08;;;;;;;5.32;4.05;;;16.90;99.90;;;;;;5095211;27;20035;-81
2023/08/29 00:56:35;;;;;;;6.13;3.45;;;16.90;99.90;;;;;;5110787;27;20039;-81
2023/08/29 00:59:05;;;;;;;4.88;3.17;;;16.80;99.90;;;;;;5128848;27;20031;-81
2023/08/29 01:01:32;;;;;;;4.15;3.65;;;16.90;99.90;;;;;;5093425;27;20043;-83
2023/08/29 01:03:59;;;;;;;4.22;3.67;;;16.80;99.90;;;;;;5127034;27;20160;-82
2023/08/29 01:06:25;;;;;;;4.90;3.58;;;16.80;99.90;;;;;;5111938;27;20680;-81
2023/08/29 01:08:51;;;;;;;6.05;3.85;;;16.80;99.90;;;;;;5103727;27;20084;-81
2023/08/29 01:11:51;;;;;;;4.60;4.10;;;16.80;99.90;;;;;;5104740;27;20031;-80
2023/08/29 01:14:43;;;;;;;5.57;3.50;;;16.80;99.90;;;;;;5129624;27;20120;-80
2023/08/29 01:17:34;;;;;;;3.80;3.40;;;16.80;99.90;;;;;;5110566;27;20038;-82
2023/08/29 01:20:02;;;;;;;4.25;3.35;;;16.70;99.90;;;;;;5118472;27;20047;-81
2023/08/29 01:22:39;;;;;;;5.68;3.85;;;16.70;99.90;;;;;;5089743;27;20092;-81
2023/08/29 01:25:34;;;;;;;4.32;3.38;;;16.70;99.90;;;;;;5108194;27;20039;-83
2023/08/29 01:28:01;;;;;;;4.28;3.53;;;16.70;99.90;;;;;;5108831;28;20127;-82
2023/08/29 01:30:28;;;;;;;6.45;3.30;;;16.70;99.90;;;;;;5127296;27;20039;-83
2023/08/29 01:32:54;;;;;;;4.50;3.45;;;16.70;99.90;;;;;;5108179;27;20035;-82
2023/08/29 01:35:22;;;;;;;5.55;3.38;;;16.70;99.90;;;;;;5108120;27;20046;-83
2023/08/29 01:37:48;;;;;;;6.65;3.50;;;16.70;99.90;;;;;;5127811;27;20130;-82
2023/08/29 01:40:13;;;;;;;4.78;3.65;;;16.60;99.90;;;;;;5091330;27;20481;-81
2023/08/29 01:42:39;;;;;;;4.95;3.88;;;16.70;99.90;;;;;;5095340;27;20043;-83
2023/08/29 01:45:09;;;;;;;5.88;3.70;;;16.70;99.90;;;;;;5111407;27;20045;-82
2023/08/29 01:47:34;;;;;;;6.95;3.65;;;16.60;99.90;;;;;;5111127;27;20045;-83
2023/08/29 01:50:03;;;;;;;8.00;4.00;;;16.70;99.90;;;;;;5107192;28;20483;-82
2023/08/29 01:52:30;;;;;;;4.28;3.60;;;16.60;99.90;;;;;;5100739;28;20695;-80
2023/08/29 01:54:57;;;;;;;4.47;3.78;;;16.60;99.90;;;;;;5090233;28;20039;-82
2023/08/29 01:57:26;;;;;;;8.60;3.80;;;16.60;99.90;;;;;;5084214;28;20105;-82
2023/08/29 01:59:53;;;;;;;5.97;4.28;;;16.60;99.90;;;;;;5079457;28;20044;-81
2023/08/29 02:02:20;;;;;;;7.60;4.07;;;16.70;99.90;;;;;;5087549;28;20038;-80
2023/08/29 02:04:46;;;;;;;5.03;4.07;;;16.60;99.90;;;;;;5106945;28;20039;-80
2023/08/29 02:07:11;;;;;;;4.90;3.70;;;16.60;99.90;;;;;;5084965;28;20039;-82
2023/08/29 02:09:37;;;;;;;7.97;3.72;;;16.60;99.90;;;;;;5072252;28;20043;-78
2023/08/29 02:12:03;;;;;;;5.50;3.83;;;16.50;99.90;;;;;;5082731;28;20059;-82
2023/08/29 02:14:29;;;;;;;4.60;3.70;;;16.50;99.90;;;;;;5107997;28;20039;-81
2023/08/29 02:16:55;;;;;;;9.05;4.28;;;16.50;99.90;;;;;;5106183;28;20345;-80
2023/08/29 02:19:20;;;;;;;5.95;3.88;;;16.60;99.90;;;;;;5089264;28;20101;-80
2023/08/29 02:21:46;;;;;;;6.50;5.28;;;16.50;99.90;;;;;;5107105;28;20039;-82
2023/08/29 02:24:12;;;;;;;6.13;5.22;;;16.50;99.90;;;;;;5063070;28;20396;-82
2023/08/29 02:26:37;;;;;;;5.38;4.60;;;16.60;99.90;;;;;;5087915;28;20043;-80
2023/08/29 02:29:03;;;;;;;7.30;4.95;;;16.50;99.90;;;;;;5073970;28;20034;-82
2023/08/29 02:31:29;;;;;;;6.82;4.20;;;16.50;99.90;;;;;;5073217;28;20042;-81
2023/08/29 02:33:55;;;;;;;5.63;4.80;;;16.40;99.90;;;;;;5074930;28;20487;-81
2023/08/29 02:36:20;;;;;;;7.47;5.05;;;16.40;99.90;;;;;;5095691;28;20047;-81
2023/08/29 02:38:46;;;;;;;6.03;4.55;;;16.50;99.90;;;;;;5077252;28;20038;-81
2023/08/29 02:41:12;;;;;;;7.65;4.75;;;16.40;99.90;;;;;;5093346;28;20039;-81
2023/08/29 02:43:38;;;;;;;8.25;5.63;;;16.50;99.90;;;;;;5088880;28;20067;-82
2023/08/29 02:46:04;;;;;;;7.00;4.65;;;16.50;99.90;;;;;;5092829;28;20074;-81
2023/08/29 02:48:29;;;;;;;5.93;4.38;;;16.50;99.90;;;;;;5057150;28;20195;-82
2023/08/29 02:50:55;;;;;;;6.55;4.35;;;16.50;99.90;;;;;;5076339;27;20514;-81
2023/08/29 02:53:22;;;;;;;6.18;4.93;;;16.40;99.90;;;;;;5114455;27;20111;-82
2023/08/29 02:55:52;;;;;;;9.70;5.97;;;16.40;99.90;;;;;;5098881;27;20042;-83
2023/08/29 02:58:18;;;;;;;7.82;5.20;;;16.60;99.90;;;;;;5096187;27;20088;-83
2023/08/29 03:00:44;;;;;;;7.00;5.00;;;16.50;99.90;;;;;;5093589;27;20144;-85
2023/08/29 03:03:11;;;;;;;7.75;4.68;;;16.60;99.90;;;;;;5114655;27;20062;-81
2023/08/29 03:05:37;;;;;;;5.00;4.22;;;16.50;99.90;;;;;;5115541;27;20047;-80
2023/08/29 03:08:05;;;;;;;6.38;4.88;;;16.50;99.90;;;;;;5105548;27;20035;-83
2023/08/29 03:10:38;;;;;;;6.18;4.85;;;16.40;99.90;;;;;;5107862;27;20037;-82
2023/08/29 03:13:04;;;;;;;5.38;4.15;;;16.40;99.90;;;;;;5130871;27;20096;-82
2023/08/29 03:15:33;;;;;;;8.07;4.85;;;16.50;99.90;;;;;;5132726;27;20031;-82
2023/08/29 03:18:00;;;;;;;5.50;4.50;;;16.50;99.90;;;;;;5125506;27;20031;-81
2023/08/29 03:20:26;;;;;;;10.35;6.55;;;16.40;99.90;;;;;;5124303;27;20039;-82
2023/08/29 03:22:52;;;;;;;5.82;4.53;;;16.60;99.90;;;;;;5132168;27;20122;-82
2023/08/29 03:25:22;;;;;;;6.97;4.95;;;16.50;99.90;;;;;;5132225;27;20065;-83
2023/08/29 03:27:48;;;;;;;8.75;4.85;;;16.70;99.90;;;;;;5115200;27;20092;-83
2023/08/29 03:30:14;;;;;;;8.38;5.75;;;16.60;99.90;;;;;;5097679;27;20043;-82
2023/08/29 03:32:40;;;;;;;9.18;5.78;;;16.50;99.90;;;;;;5091924;28;20693;-81
2023/08/29 03:35:07;;;;;;;5.75;5.00;;;16.50;99.90;;;;;;5093364;27;20031;-82
2023/08/29 03:37:33;;;;;;;6.60;5.07;;;16.30;99.90;;;;;;5131933;27;20053;-82
2023/08/29 03:39:59;;;;;;;7.15;5.75;;;16.50;99.90;;;;;;5115374;27;20043;-83
2023/08/29 03:42:24;;;;;;;7.50;5.10;;;16.40;99.90;;;;;;5130633;27;20546;-85
2023/08/29 03:44:50;;;;;;;8.80;5.15;;;16.40;99.90;;;;;;5098156;27;20399;-83
2023/08/29 03:47:17;;;;;;;5.68;4.85;;;16.50;99.90;;;;;;5114441;27;20027;-83
2023/08/29 03:49:43;;;;;;;6.90;4.53;;;16.30;99.90;;;;;;5115382;27;20064;-81
2023/08/29 03:52:09;;;;;;;6.10;4.78;;;16.40;99.90;;;;;;5112888;27;20043;-82
2023/08/29 03:54:35;;;;;;;9.50;5.32;;;16.30;99.90;;;;;;5114237;27;20031;-85
2023/08/29 03:57:00;;;;;;;8.10;4.57;;;16.30;99.90;;;;;;5066586;28;20052;-82
2023/08/29 03:59:26;;;;;;;5.43;4.60;;;16.20;99.90;;;;;;5096583;27;20053;-82
2023/08/29 04:01:52;;;;;;;6.95;4.72;;;16.20;99.90;;;;;;5114629;27;20076;-81
2023/08/29 04:04:18;;;;;;;5.53;4.53;;;16.10;99.90;;;;;;5091816;27;20082;-81
2023/08/29 04:06:43;;;;;;;7.38;4.60;;;16.10;99.90;;;;;;5096634;27;20437;-81
2023/08/29 04:09:10;;;;;;;7.55;4.78;;;16.10;99.90;;;;;;5106128;27;20046;-83
2023/08/29 04:11:36;;;;;;;9.68;5.25;;;16.00;99.90;;;;;;5095418;27;20023;-84
2023/08/29 04:14:02;;;;;;;5.70;4.45;;;16.00;99.90;;;;;;5111652;27;20084;-82
2023/08/29 04:16:28;;;;;;;7.53;5.35;;;16.00;99.90;;;;;;5111800;27;20035;-83
2023/08/29 04:18:54;;;;;;;7.32;5.45;;;16.00;99.90;;;;;;5094944;27;20035;-85
2023/08/29 04:21:19;;;;;;;9.10;5.65;;;16.00;99.90;;;;;;5113913;27;20031;-83
2023/08/29 04:23:45;;;;;;;8.27;5.78;;;15.90;99.90;;;;;;5095935;27;20485;-82
2023/08/29 04:26:11;;;;;;;6.65;5.60;;;16.00;99.90;;;;;;5110037;27;20058;-82
2023/08/29 04:28:37;;;;;;;7.75;6.20;;;15.90;99.90;;;;;;5093218;27;20039;-81
2023/08/29 04:31:10;;;;;;;8.85;5.97;;;15.90;99.90;;;;;;5111317;27;20027;-81
2023/08/29 04:33:42;;;;;;;8.43;5.95;;;16.00;99.90;;;;;;5112142;27;20035;-84
2023/08/29 04:36:08;;;;;;;9.48;6.80;;;16.00;99.90;;;;;;5120727;27;20063;-82
2023/08/29 04:38:35;;;;;;;7.97;6.50;;;15.80;99.90;;;;;;5095084;27;20046;-83
2023/08/29 04:41:00;;;;;;;9.52;6.85;;;15.90;99.90;;;;;;5108247;27;20039;-81
2023/08/29 04:43:27;;;;;;;8.80;5.55;;;16.00;99.90;;;;;;5102941;27;20506;-82
2023/08/29 04:45:53;;;;;;;9.10;6.63;;;16.00;99.90;;;;;;5089142;27;20043;-83
2023/08/29 04:48:18;;;;;;;12.07;7.65;;;16.00;99.90;;;;;;5127557;27;20092;-83
2023/08/29 04:50:47;;;;;;;8.77;7.35;;;16.00;99.90;;;;;;5071816;27;20049;-81
2023/08/29 04:53:13;;;;;;;7.38;6.35;;;15.90;99.90;;;;;;5079994;27;20060;-82
2023/08/29 04:55:39;;;;;;;8.80;6.75;;;15.90;99.90;;;;;;5109256;27;20046;-81
2023/08/29 04:58:05;;;;;;;9.93;7.57;;;15.80;99.90;;;;;;5097124;27;20493;-85
2023/08/29 05:00:31;;;;;;;8.75;6.95;;;15.90;99.90;;;;;;5115526;27;20561;-83
2023/08/29 05:02:57;;;;;;;9.43;7.45;;;15.90;99.90;;;;;;5126605;27;20046;-81
2023/08/29 05:05:22;;;;;;;10.77;7.85;;;16.00;99.90;;;;;;5109546;27;20471;-83
2023/08/29 05:07:48;;;;;;;10.90;7.18;;;16.00;99.90;;;;;;5112134;27;20077;-82
2023/08/29 05:10:14;;;;;;;11.88;7.95;;;16.00;99.90;;;;;;5113225;27;20038;-81
2023/08/29 05:12:41;;;;;;;11.82;7.47;;;16.00;99.90;;;;;;5109624;27;20088;-81
2023/08/29 05:15:08;;;;;;;10.93;7.13;;;16.10;99.90;;;;;;5112795;27;20031;-82
2023/08/29 05:17:34;;;;;;;10.90;7.22;;;16.00;99.90;;;;;;5096405;27;20034;-81
2023/08/29 05:19:59;;;;;;;10.93;7.05;;;16.00;99.90;;;;;;5099945;27;20401;-84
2023/08/29 05:22:25;;;;;;;9.80;7.65;;;16.20;99.90;;;;;;5091725;27;20039;-83
2023/08/29 05:24:51;;;;;;;9.45;7.70;;;16.10;99.90;;;;;;5112571;27;20424;-84
2023/08/29 05:27:17;;;;;;;8.50;7.00;;;16.20;99.90;;;;;;5091898;27;20035;-82
2023/08/29 05:29:43;;;;;;;10.50;6.70;;;16.20;99.90;;;;;;5110261;27;20389;-83
2023/08/29 05:32:09;;;;;;;6.20;5.60;;;16.10;99.90;;;;;;5109647;27;20051;-84
2023/08/29 05:34:35;;;;;;;7.03;5.60;;;16.00;99.90;;;;;;5087594;27;20045;-78
2023/08/29 05:37:02;;;;;;;9.32;6.07;;;16.00;99.90;;;;;;5126727;27;20677;-77
2023/08/29 05:39:28;;;;;;;11.65;8.55;;;16.20;99.90;;;;;;5124386;27;20047;-77
2023/08/29 05:41:55;;;;;;;9.55;7.57;;;16.10;99.90;;;;;;5070287;27;20044;-78
2023/08/29 05:44:20;;;;;;;9.80;7.25;;;16.30;99.90;;;;;;5129887;27;20540;-79
2023/08/29 05:46:46;;;;;;;10.40;7.63;;;16.20;99.90;;;;;;5114691;27;20043;-78
2023/08/29 05:49:12;;;;;;;11.50;8.52;;;16.30;99.90;;;;;;5086366;27;20043;-79
2023/08/29 05:51:37;;;;;;;12.15;8.18;;;16.40;99.90;;;;;;5108990;27;20054;-81
2023/08/29 05:54:03;;;;;;;13.45;9.07;;;16.50;99.90;;;;;;5112617;27;20048;-78
2023/08/29 05:56:29;;;;;;;10.68;8.07;;;16.60;99.90;;;;;;5090826;27;20050;-79
2023/08/29 05:58:55;;;;;;;9.85;8.00;;;16.40;99.90;;;;;;5108913;27;20041;-74
2023/08/29 06:01:21;;;;;;;12.38;9.50;;;16.50;99.90;;;;;;5112670;27;20043;-78
2023/08/29 06:03:47;;;;;;;16.35;12.30;;;16.60;99.90;;;;;;5089953;27;20046;-78
2023/08/29 06:06:14;;;;;;;13.75;11.90;;;16.70;99.90;;;;;;5111908;27;20390;-78
2023/08/29 06:08:40;;;;;;;12.77;10.90;;;16.80;99.90;;;;;;5106664;27;20126;-78
2023/08/29 06:11:06;;;;;;;12.30;10.65;;;16.70;99.90;;;;;;5097339;27;20160;-78
2023/08/29 06:13:32;;;;;;;14.80;11.38;;;17.00;99.90;;;;;;5121696;27;20099;-78
2023/08/29 06:15:58;;;;;;;13.43;11.55;;;16.90;99.90;;;;;;5113971;27;20046;-78
2023/08/29 06:18:24;;;;;;;11.45;8.13;;;17.00;99.90;;;;;;5113628;27;20068;-78
2023/08/29 06:20:49;;;;;;;11.35;8.70;;;17.10;99.90;;;;;;5113946;27;20034;-78
2023/08/29 06:23:15;;;;;;;14.73;8.07;;;17.00;99.90;;;;;;5095797;27;20536;-78
2023/08/29 06:25:41;;;;;;;9.55;8.55;;;17.00;99.90;;;;;;5096053;27;20121;-78
2023/08/29 06:28:07;;;;;;;11.52;8.05;;;17.20;99.90;;;;;;5093516;27;20101;-78
2023/08/29 06:30:34;;;;;;;8.68;7.78;;;17.30;99.90;;;;;;5069341;27;20043;-78
2023/08/29 06:33:00;;;;;;;9.50;7.65;;;17.40;99.90;;;;;;5113133;27;20058;-79
2023/08/29 06:35:26;;;;;;;9.13;7.53;;;17.50;99.90;;;;;;5111549;27;20039;-79
2023/08/29 06:37:54;;;;;;;8.48;7.63;;;17.50;99.90;;;;;;5093473;27;20051;-79
2023/08/29 06:40:20;;;;;;;10.00;6.95;;;17.70;99.90;;;;;;5113156;27;20043;-79
2023/08/29 06:42:46;;;;;;;11.65;7.32;;;17.70;99.90;;;;;;5130741;27;20054;-79
2023/08/29 06:45:12;;;;;;;8.50;7.20;;;17.80;99.90;;;;;;5093475;27;20028;-79
2023/08/29 06:47:38;;;;;;;10.38;6.20;;;18.00;99.90;;;;;;5130255;27;20147;-80
2023/08/29 06:50:04;;;;;;;6.75;4.97;;;18.10;99.90;;;;;;5108536;27;20486;-80
2023/08/29 06:52:29;;;;;;;10.23;6.10;;;18.30;99.90;;;;;;5090599;27;20706;-80
2023/08/29 06:54:55;;;;;;;5.85;5.25;;;18.40;99.90;;;;;;5104534;28;20039;-80
2023/08/29 06:57:21;;;;;;;7.03;4.82;;;18.60;99.90;;;;;;5111815;27;20105;-79
2023/08/29 06:59:47;;;;;;;7.07;4.60;;;18.40;99.90;;;;;;5082697;28;20034;-81
2023/08/29 07:02:12;;;;;;;4.35;3.95;;;18.80;99.90;;;;;;5093869;27;20143;-81
2023/08/29 07:04:38;;;;;;;6.57;3.78;;;18.90;99.90;;;;;;5124616;27;20042;-80
2023/08/29 07:07:04;;;;;;;4.20;3.42;;;19.00;99.90;;;;;;5104831;27;20043;-82
2023/08/29 07:09:30;;;;;;;5.78;3.10;;;19.00;99.90;;;;;;5128476;27;20120;-79
2023/08/29 07:11:57;;;;;;;3.72;3.30;;;19.20;99.90;;;;;;5092854;27;20379;-80
2023/08/29 07:14:22;;;;;;;3.72;3.10;;;19.40;99.90;;;;;;5095516;27;20050;-79
2023/08/29 07:16:48;;;;;;;4.10;2.65;;;19.70;99.90;;;;;;5092571;27;20031;-78
2023/08/29 07:19:14;;;;;;;4.95;3.13;;;19.80;99.90;;;;;;5111868;27;20128;-82
2023/08/29 07:21:40;;;;;;;2.45;2.25;;;19.80;99.90;;;;;;5100229;27;20043;-80
2023/08/29 07:24:06;;;;;;;3.58;2.50;;;20.00;99.90;;;;;;5076661;27;20042;-79
2023/08/29 07:26:31;;;;;;;2.40;2.10;;;19.90;99.90;;;;;;5096313;27;20039;-79
2023/08/29 07:28:57;;;;;;;4.75;2.28;;;20.10;99.90;;;;;;5129853;27;20486;-79
2023/08/29 07:31:23;;;;;;;2.25;1.80;;;20.30;99.90;;;;;;5134072;27;20030;-79
2023/08/29 07:33:49;;;;;;;3.05;1.65;;;20.20;99.90;;;;;;5108059;27;20034;-80
2023/08/29 07:36:15;;;;;;;3.50;1.40;;;20.50;99.90;;;;;;5129196;27;20474;-79
2023/08/29 07:38:41;;;;;;;2.78;1.50;;;20.40;99.90;;;;;;5132402;27;20065;-79
2023/08/29 07:41:07;;;;;;;2.33;1.30;;;20.50;99.90;;;;;;5114431;27;20038;-79
2023/08/29 07:43:33;;;;;;;1.85;1.30;;;20.70;99.90;;;;;;5109615;27;20040;-78
2023/08/29 07:45:59;;;;;;;1.55;1.20;;;20.70;99.90;;;;;;5088557;27;20082;-79
2023/08/29 07:48:25;;;;;;;1.35;1.10;;;20.70;99.90;;;;;;5096290;27;20493;-80
2023/08/29 07:50:51;;;;;;;1.67;1.08;;;20.80;99.90;;;;;;5112704;27;20044;-80
2023/08/29 07:53:17;;;;;;;1.30;1.10;;;20.80;99.90;;;;;;5099594;27;20031;-80
2023/08/29 07:55:44;;;;;;;4.97;1.77;;;20.80;99.90;;;;;;5133997;27;20129;-80
2023/08/29 07:58:10;;;;;;;1.77;0.98;;;20.80;99.90;;;;;;5116464;27;20477;-79
2023/08/29 08:00:36;;;;;;;1.95;1.08;;;20.90;99.90;;;;;;5091890;27;20139;-80
2023/08/29 08:03:03;;;;;;;2.75;0.95;;;21.00;99.90;;;;;;5096415;27;20039;-80
2023/08/29 08:05:30;;;;;;;2.15;0.90;;;21.00;99.90;;;;;;5133406;27;20942;-80
2023/08/29 08:07:56;;;;;;;2.50;1.10;;;21.00;99.90;;;;;;5115961;27;20035;-80
2023/08/29 08:10:22;;;;;;;1.67;1.00;;;21.10;99.90;;;;;;5115429;27;20041;-80
2023/08/29 08:12:49;;;;;;;1.40;0.90;;;21.10;99.90;;;;;;5133376;27;20058;-80
2023/08/29 08:15:15;;;;;;;1.70;1.00;;;21.20;99.90;;;;;;5097076;27;20043;-80
2023/08/29 08:17:41;;;;;;;2.42;1.38;;;21.30;99.90;;;;;;5114819;27;20142;-80
2023/08/29 08:20:08;;;;;;;1.33;1.10;;;21.20;99.90;;;;;;5116286;27;20598;-79
2023/08/29 08:22:38;;;;;;;1.65;1.17;;;21.40;99.90;;;;;;5115370;27;20043;-81
2023/08/29 08:25:04;;;;;;;2.05;1.48;;;21.40;99.90;;;;;;5115671;27;20038;-80
2023/08/29 08:27:30;;;;;;;2.17;1.13;;;21.40;99.90;;;;;;5115634;27;20065;-80
2023/08/29 08:29:57;;;;;;;2.70;1.10;;;21.50;99.90;;;;;;5104724;27;20027;-80
2023/08/29 08:32:23;;;;;;;1.30;1.00;;;21.70;99.90;;;;;;5095548;27;20031;-80
2023/08/29 08:34:48;;;;;;;5.18;1.42;;;21.80;99.90;;;;;;5114189;27;20057;-79
2023/08/29 08:37:14;;;;;;;1.75;0.98;;;22.00;99.90;;;;;;5115488;27;20039;-80
2023/08/29 08:39:41;;;;;;;1.70;0.90;;;21.90;99.90;;;;;;5073059;27;20043;-80
2023/08/29 08:42:07;;;;;;;2.38;1.27;;;22.10;99.90;;;;;;5112819;27;20046;-79
2023/08/29 08:44:34;;;;;;;3.25;1.30;;;22.00;99.90;;;;;;5112108;27;20047;-78
2023/08/29 08:47:00;;;;;;;1.52;1.10;;;22.20;99.90;;;;;;5133030;27;20072;-79
2023/08/29 08:49:26;;;;;;;2.38;1.00;;;22.40;99.90;;;;;;5115643;27;20039;-79
2023/08/29 08:51:52;;;;;;;1.50;1.08;;;22.40;99.90;;;;;;5072360;27;20043;-79
2023/08/29 08:54:18;;;;;;;3.08;1.00;;;22.60;99.90;;;;;;5115147;27;20039;-79
2023/08/29 08:56:44;;;;;;;1.20;1.00;;;22.70;99.90;;;;;;5115802;27;20039;-79
2023/08/29 08:59:10;;;;;;;1.60;0.80;;;22.90;99.90;;;;;;5073414;27;20042;-79
2023/08/29 09:01:37;;;;;;;1.52;1.13;;;23.00;99.90;;;;;;5112052;27;20395;-79
2023/08/29 09:04:03;;;;;;;1.42;0.98;;;22.70;99.90;;;;;;5099229;27;20443;-80
2023/08/29 09:06:29;;;;;;;1.15;0.90;;;22.90;99.90;;;;;;5115370;27;20073;-80
2023/08/29 09:09:18;;;;;;;1.65;1.00;;;22.90;99.90;;;;;;5125748;27;20038;-79
2023/08/29 09:11:51;;;;;;;4.03;1.65;;;22.90;99.90;;;;;;5126581;27;20102;-78
2023/08/29 09:14:17;;;;;;;2.58;1.60;;;22.80;99.90;;;;;;5132696;27;20094;-79
2023/08/29 09:16:43;;;;;;;1.80;1.45;;;22.60;99.90;;;;;;5111876;27;20459;-80
2023/08/29 09:19:09;;;;;;;2.78;1.50;;;22.60;99.90;;;;;;5095172;27;20064;-79
2023/08/29 09:21:35;;;;;;;2.03;1.38;;;23.00;99.90;;;;;;5114949;27;20479;-80
2023/08/29 09:24:02;;;;;;;2.17;1.33;;;23.00;99.90;;;;;;5113810;27;20077;-80
2023/08/29 09:26:32;;;;;;;1.83;1.55;;;23.00;99.90;;;;;;5129948;27;20099;-79
2023/08/29 09:28:58;;;;;;;1.27;1.08;;;22.90;99.90;;;;;;5132240;27;20117;-80
2023/08/29 09:31:25;;;;;;;3.15;1.40;;;22.90;99.90;;;;;;5068535;27;20043;-78
2023/08/29 09:33:50;;;;;;;2.30;1.27;;;22.80;99.90;;;;;;5114702;27;20054;-80
2023/08/29 09:36:16;;;;;;;2.47;1.17;;;22.80;99.90;;;;;;5132307;27;20027;-80
2023/08/29 09:38:43;;;;;;;2.08;1.25;;;22.60;99.90;;;;;;5114448;27;20103;-80
2023/08/29 09:41:15;;;;;;;4.30;1.70;;;22.80;99.90;;;;;;5097222;27;20583;-78
2023/08/29 09:43:48;;;;;;;1.90;1.40;;;22.90;99.90;;;;;;5112567;27;20050;-79
2023/08/29 09:46:21;;;;;;;1.40;1.20;;;22.90;99.90;;;;;;5098250;27;20035;-79
2023/08/29 09:48:56;;;;;;;2.13;1.20;;;23.00;99.90;;;;;;5132062;27;20049;-81
2023/08/29 09:51:24;;;;;;;2.28;1.10;;;23.20;99.90;;;;;;5097623;27;20129;-80
2023/08/29 09:53:50;;;;;;;2.05;0.85;;;23.30;99.90;;;;;;5132183;27;20057;-81
2023/08/29 09:56:19;;;;;;;1.23;0.85;;;23.40;99.90;;;;;;5115196;27;20045;-82
2023/08/29 09:58:49;;;;;;;1.50;0.90;;;23.50;99.90;;;;;;5133404;27;20421;-80
2023/08/29 10:01:16;;;;;;;1.42;1.00;;;23.90;99.90;;;;;;5109085;27;20035;-83
2023/08/29 10:03:43;;;;;;;1.00;0.90;;;24.10;99.90;;;;;;5114808;27;20043;-79
2023/08/29 10:06:14;;;;;;;2.13;0.95;;;24.30;99.90;;;;;;5114790;27;20038;-79
2023/08/29 10:08:55;;;;;;;1.98;0.77;;;24.70;99.90;;;;;;5131774;27;20051;-80
2023/08/29 10:11:21;;;;;;;1.75;1.30;;;25.00;99.90;;;;;;5114862;27;20613;-80
2023/08/29 10:13:48;;;;;;;1.17;0.82;;;25.30;99.90;;;;;;5092417;27;20047;-83
2023/08/29 10:16:15;;;;;;;1.23;0.90;;;25.00;99.90;;;;;;5127016;27;20110;-80
2023/08/29 10:18:42;;;;;;;1.73;1.00;;;25.10;99.90;;;;;;5114769;27;20054;-80
2023/08/29 10:21:09;;;;;;;1.88;1.10;;;24.80;99.90;;;;;;5132685;27;20047;-81
2023/08/29 10:23:36;;;;;;;1.40;0.73;;;25.50;99.90;;;;;;5131022;27;20455;-81
2023/08/29 10:26:02;;;;;;;1.35;0.88;;;25.40;99.90;;;;;;5132085;27;20030;-81
2023/08/29 10:28:30;;;;;;;1.48;1.30;;;25.80;99.90;;;;;;5131453;27;20538;-81
2023/08/29 10:31:02;;;;;;;1.88;1.60;;;25.90;99.90;;;;;;5111462;28;20494;-81
2023/08/29 10:33:28;;;;;;;1.90;1.10;;;25.70;99.90;;;;;;5107336;27;20046;-80
2023/08/29 10:35:53;;;;;;;3.15;1.30;;;25.90;99.90;;;;;;5113967;27;20035;-81
2023/08/29 10:38:19;;;;;;;4.32;1.67;;;26.20;99.90;;;;;;5098908;28;20147;-81
2023/08/29 10:40:48;;;;;;;1.23;1.13;;;26.20;99.90;;;;;;5097404;27;20053;-82
2023/08/29 10:43:19;;;;;;;2.58;1.45;;;25.90;99.90;;;;;;5132131;27;20052;-81
2023/08/29 10:45:49;;;;;;;2.10;1.17;;;25.50;99.90;;;;;;5114660;27;20091;-82
2023/08/29 10:48:45;;;;;;;1.50;1.30;;;25.70;99.90;;;;;;5134478;27;20114;-83
2023/08/29 10:51:30;;;;;;;1.45;1.10;;;25.70;99.90;;;;;;5114391;27;20379;-82
2023/08/29 10:54:09;;;;;;;2.15;1.17;;;25.40;99.90;;;;;;5103144;27;20061;-82
2023/08/29 10:56:43;;;;;;;1.60;1.30;;;25.50;99.90;;;;;;5132372;27;20043;-82
2023/08/29 10:59:27;;;;;;;;;;;25.10;99.90;;;;;;5124828;27;20039;-81
2023/08/29 11:02:29;;;;;;;2.13;1.80;;;24.90;99.90;;;;;;5132711;27;20008;-81
2023/08/29 11:05:04;;;;;;;2.90;2.10;;;25.30;99.90;;;;;;5132381;27;20538;-81
2023/08/29 11:07:31;;;;;;;4.43;1.70;;;25.60;99.90;;;;;;5130630;27;20082;-81
2023/08/29 11:10:22;;;;;;;2.33;1.70;;;25.00;99.90;;;;;;5132705;27;20042;-81
2023/08/29 11:13:11;;;;;;;2.40;1.60;;;25.70;99.90;;;;;;5111304;27;20050;-82
2023/08/29 11:15:49;;;;;;;2.72;1.33;;;25.60;99.90;;;;;;5090156;28;20043;-82
2023/08/29 11:18:32;;;;;;;1.98;1.50;;;25.30;99.90;;;;;;5107604;27;20032;-83
2023/08/29 11:21:03;;;;;;;2.17;1.55;;;25.30;99.90;;;;;;5113191;27;20499;-83
2023/08/29 11:23:40;;;;;;;1.75;1.50;;;25.20;99.90;;;;;;5110994;28;20047;-81
2023/08/29 11:26:08;;;;;;;1.58;1.48;;;25.60;99.90;;;;;;5114292;27;20176;-81
2023/08/29 11:28:42;;;;;;;2.80;1.58;;;25.60;99.90;;;;;;5097308;27;20516;-83
2023/08/29 11:31:08;;;;;;;2.08;1.50;;;25.20;99.90;;;;;;5105454;27;20036;-83
2023/08/29 11:33:36;;;;;;;1.77;1.30;;;25.40;99.90;;;;;;5093181;28;20043;-81
2023/08/29 11:36:06;;;;;;;2.33;1.30;;;25.40;99.90;;;;;;5129376;27;20126;-81
2023/08/29 11:38:33;;;;;;;5.63;1.73;;;25.40;99.90;;;;;;5114130;27;20077;-81
2023/08/29 11:41:05;;;;;;;2.22;1.50;;;25.10;99.90;;;;;;5097070;27;20140;-83
2023/08/29 11:43:35;;;;;;;2.45;1.50;;;25.20;99.90;;;;;;5106840;27;20039;-80
2023/08/29 11:46:03;;;;;;;2.03;1.40;;;25.10;99.90;;;;;;5111049;28;20117;-81
2023/08/29 11:48:48;;;;;;;2.40;1.70;;;25.30;99.90;;;;;;5104152;27;20035;-80
2023/08/29 11:51:15;;;;;;;1.92;1.52;;;25.50;99.90;;;;;;5108945;27;20048;-81
2023/08/29 11:53:41;;;;;;;3.25;2.38;;;25.80;99.90;;;;;;5109788;28;20051;-82
2023/08/29 11:56:11;;;;;;;1.80;1.50;;;25.70;99.90;;;;;;5078003;27;20036;-81
2023/08/29 11:58:39;;;;;;;2.63;2.00;;;25.80;99.90;;;;;;5105999;28;20035;-81
2023/08/29 12:01:07;;;;;;;2.58;1.63;;;25.80;99.90;;;;;;5114342;27;20043;-81
2023/08/29 12:03:37;;;;;;;1.83;1.60;;;25.80;99.90;;;;;;5114192;27;20046;-81
2023/08/29 12:06:09;;;;;;;2.47;1.65;;;25.80;99.90;;;;;;5125977;27;20046;-81
2023/08/29 12:08:40;;;;;;;2.45;1.55;;;25.90;99.90;;;;;;5106564;27;20065;-81
2023/08/29 12:11:07;;;;;;;3.38;1.90;;;25.90;99.90;;;;;;5114756;27;20372;-82
2023/08/29 12:13:36;;;;;;;4.25;1.92;;;25.80;99.90;;;;;;5088053;27;20739;-82
2023/08/29 12:16:04;;;;;;;2.22;1.70;;;25.90;99.90;;;;;;5091322;28;20135;-82
2023/08/29 12:18:32;;;;;;;2.75;1.85;;;26.00;99.90;;;;;;5113981;27;20042;-82
2023/08/29 12:21:18;;;;;;;3.35;1.90;;;25.70;99.90;;;;;;5094748;27;20104;-82
2023/08/29 12:23:45;;;;;;;2.40;1.90;;;25.80;99.90;;;;;;5116730;27;20038;-82
2023/08/29 12:26:11;;;;;;;2.28;1.60;;;25.80;99.90;;;;;;5096722;27;20043;-82
2023/08/29 12:28:37;;;;;;;1.55;1.33;;;25.90;99.90;;;;;;5093224;27;20044;-82
2023/08/29 12:31:03;;;;;;;2.45;1.80;;;25.70;99.90;;;;;;5113463;27;20027;-82
2023/08/29 12:33:29;;;;;;;2.67;2.10;;;25.60;99.90;;;;;;5130432;27;20053;-83
2023/08/29 12:35:55;;;;;;;3.33;1.80;;;25.60;99.90;;;;;;5087565;27;20027;-82
2023/08/29 12:38:23;;;;;;;2.42;1.70;;;25.60;99.90;;;;;;5089493;28;20081;-83
2023/08/29 12:40:49;;;;;;;2.85;1.98;;;25.50;99.90;;;;;;5074022;28;20058;-83
2023/08/29 12:43:17;;;;;;;2.30;1.88;;;25.70;99.90;;;;;;5108136;27;20034;-83
2023/08/29 12:45:43;;;;;;;1.90;1.70;;;25.70;99.90;;;;;;5096457;27;20440;-81
2023/08/29 12:48:09;;;;;;;3.30;1.98;;;25.90;99.90;;;;;;5113041;27;20039;-79